Time,TemperatureF,DewpointF,PressureIn,WindDirection,WindDirectionDegrees,WindSpeedMPH,WindSpeedGustMPH,Humidity,HourlyPrecipIn,Conditions,Clouds,dailyrainin,SoftwareType,DateUTC
2013-07-04 00:01:00,63.5,34.7,29.86,SW,225,0.0,0.0,34,0.00,,CLR,0.00,VWS V14.01,2013-07-04 07:01:00,
2013-07-04 00:06:00,63.1,34.3,29.86,SW,225,0.0,0.0,34,0.00,,CLR,0.00,VWS V14.01,2013-07-04 07:06:00,
2013-07-04 00:11:00,62.6,33.9,29.86,SW,225,0.0,0.0,34,0.00,,CLR,0.00,VWS V14.01,2013-07-04 07:11:00,
2013-07-04 00:16:00,62.6,33.9,29.86,SW,225,0.0,0.0,34,0.00,,CLR,0.00,VWS V14.01,2013-07-04 07:16:00,
2013-07-04 00:21:00,62.4,34.4,29.86,SW,225,0.0,0.0,35,0.00,,CLR,0.00,VWS V14.01,2013-07-04 07:21:00,
2013-07-04 00:26:00,62.2,35.0,29.86,SW,225,0.0,0.0,36,0.00,,CLR,0.00,VWS V14.01,2013-07-04 07:26:00,
2013-07-04 00:31:00,62.1,34.8,29.86,SW,225,0.0,0.0,36,0.00,,CLR,0.00,VWS V14.01,2013-07-04 07:31:00,
2013-07-04 00:36:00,62.1,34.8,29.86,SW,225,0.0,0.0,36,0.00,,CLR,0.00,VWS V14.01,2013-07-04 07:36:00,
2013-07-04 00:41:00,62.2,34.3,29.86,SSW,209,0.0,0.0,35,0.00,,CLR,0.00,VWS V14.01,2013-07-04 07:41:00,
2013-07-04 00:46:00,62.2,34.3,29.86,East,95,3.1,3.1,35,0.00,,CLR,0.00,VWS V14.01,2013-07-04 07:46:00,
2013-07-04 00:51:00,62.8,34.8,29.86,NE,48,0.0,0.0,35,0.00,,CLR,0.00,VWS V14.01,2013-07-04 07:51:00,
2013-07-04 00:56:00,62.6,33.9,29.86,ESE,117,2.2,2.2,34,0.00,,CLR,0.00,VWS V14.01,2013-07-04 07:56:00,
2013-07-04 01:01:00,62.6,33.9,29.86,East,83,4.0,4.0,34,0.00,,CLR,0.00,VWS V14.01,2013-07-04 08:01:00,
2013-07-04 01:06:00,62.8,34.0,29.86,ENE,74,2.7,2.7,34,0.00,,CLR,0.00,VWS V14.01,2013-07-04 08:06:00,
2013-07-04 01:11:00,62.4,33.7,29.86,ENE,62,3.1,3.6,34,0.00,,CLR,0.00,VWS V14.01,2013-07-04 08:11:00,
2013-07-04 01:16:00,62.2,34.3,29.86,East,87,0.0,0.0,35,0.00,,CLR,0.00,VWS V14.01,2013-07-04 08:16:00,
2013-07-04 01:21:00,61.9,34.0,29.86,ENE,64,0.0,0.0,35,0.00,,CLR,0.00,VWS V14.01,2013-07-04 08:21:00,
2013-07-04 01:26:00,61.3,33.5,29.86,ENE,64,0.0,0.0,35,0.00,,CLR,0.00,VWS V14.01,2013-07-04 08:26:00,
2013-07-04 01:31:00,61.2,34.0,29.86,ENE,64,0.0,0.0,36,0.00,,CLR,0.00,VWS V14.01,2013-07-04 08:31:00,
2013-07-04 01:36:00,61.0,33.9,29.86,ENE,65,0.0,0.0,36,0.00,,CLR,0.00,VWS V14.01,2013-07-04 08:36:00,
2013-07-04 01:41:00,60.8,33.7,29.86,ENE,65,0.0,0.0,36,0.00,,CLR,0.00,VWS V14.01,2013-07-04 08:41:00,
2013-07-04 01:46:00,60.6,33.5,29.86,ENE,73,2.7,2.7,36,0.00,,CLR,0.00,VWS V14.01,2013-07-04 08:46:00,
2013-07-04 01:51:00,60.8,33.7,29.86,SSE,149,2.7,2.7,36,0.00,,CLR,0.00,VWS V14.01,2013-07-04 08:51:00,
2013-07-04 01:56:00,61.0,33.2,29.86,ENE,60,0.0,2.7,35,0.00,,CLR,0.00,VWS V14.01,2013-07-04 08:56:00,
2013-07-04 02:01:00,60.8,33.0,29.86,ESE,109,0.0,0.0,35,0.00,,CLR,0.00,VWS V14.01,2013-07-04 09:01:00,
2013-07-04 02:06:00,60.6,33.5,29.86,ESE,109,0.0,0.0,36,0.00,,CLR,0.00,VWS V14.01,2013-07-04 09:06:00,
2013-07-04 02:11:00,60.4,33.4,29.86,ESE,109,0.0,0.0,36,0.00,,CLR,0.00,VWS V14.01,2013-07-04 09:11:00,
2013-07-04 02:16:00,60.6,33.5,29.86,East,97,0.0,0.0,36,0.00,,CLR,0.00,VWS V14.01,2013-07-04 09:16:00,
2013-07-04 02:21:00,60.4,33.4,29.86,SE,126,0.0,0.0,36,0.00,,CLR,0.00,VWS V14.01,2013-07-04 09:21:00,
2013-07-04 02:26:00,60.3,33.2,29.86,SE,126,0.0,0.0,36,0.00,,CLR,0.00,VWS V14.01,2013-07-04 09:26:00,
2013-07-04 02:31:00,60.3,33.2,29.86,SSE,153,2.7,2.7,36,0.00,,CLR,0.00,VWS V14.01,2013-07-04 09:31:00,
2013-07-04 02:36:00,60.3,33.9,29.86,SSE,154,0.0,0.0,37,0.00,,CLR,0.00,VWS V14.01,2013-07-04 09:36:00,
2013-07-04 02:41:00,60.1,33.1,29.86,SSE,154,0.0,0.0,36,0.00,,CLR,0.00,VWS V14.01,2013-07-04 09:41:00,
2013-07-04 02:46:00,59.9,33.6,29.86,East,85,0.0,0.0,37,0.00,,CLR,0.00,VWS V14.01,2013-07-04 09:46:00,
2013-07-04 02:51:00,59.7,33.4,29.86,East,85,0.0,0.0,37,0.00,,CLR,0.00,VWS V14.01,2013-07-04 09:51:00,
2013-07-04 02:56:00,59.4,33.8,29.86,East,85,0.0,0.0,38,0.00,,CLR,0.00,VWS V14.01,2013-07-04 09:56:00,
2013-07-04 03:01:00,59.5,33.3,29.86,East,80,0.0,2.2,37,0.00,,CLR,0.00,VWS V14.01,2013-07-04 10:01:00,
2013-07-04 03:06:00,60.1,33.8,29.86,East,80,0.0,0.0,37,0.00,,CLR,0.00,VWS V14.01,2013-07-04 10:06:00,
2013-07-04 03:11:00,60.3,33.2,29.86,East,80,2.2,2.2,36,0.00,,CLR,0.00,VWS V14.01,2013-07-04 10:11:00,
2013-07-04 03:16:00,60.4,34.1,29.86,NE,37,3.6,4.9,37,0.00,,CLR,0.00,VWS V14.01,2013-07-04 10:16:00,
2013-07-04 03:21:00,60.3,33.9,29.86,NE,50,2.7,2.7,37,0.00,,CLR,0.00,VWS V14.01,2013-07-04 10:21:00,
2013-07-04 03:26:00,60.4,34.1,29.86,NE,50,4.0,4.0,37,0.00,,CLR,0.00,VWS V14.01,2013-07-04 10:26:00,
2013-07-04 03:31:00,60.6,34.9,29.86,NE,51,3.1,3.1,38,0.00,,CLR,0.00,VWS V14.01,2013-07-04 10:31:00,
2013-07-04 03:36:00,60.4,34.1,29.86,NNE,22,0.0,0.0,37,0.00,,CLR,0.00,VWS V14.01,2013-07-04 10:36:00,
2013-07-04 03:41:00,60.4,34.1,29.86,East,84,0.0,0.0,37,0.00,,CLR,0.00,VWS V14.01,2013-07-04 10:41:00,
2013-07-04 03:46:00,60.4,34.1,29.86,ENE,69,0.0,0.0,37,0.00,,CLR,0.00,VWS V14.01,2013-07-04 10:46:00,
2013-07-04 03:51:00,60.4,34.1,29.86,NNE,23,0.0,0.0,37,0.00,,CLR,0.00,VWS V14.01,2013-07-04 10:51:00,
2013-07-04 03:56:00,60.4,34.1,29.86,NE,37,0.0,0.0,37,0.00,,CLR,0.00,VWS V14.01,2013-07-04 10:56:00,
2013-07-04 04:01:00,60.4,34.1,29.86,NE,37,0.0,0.0,37,0.00,,FEW070,0.00,VWS V14.01,2013-07-04 11:01:00,
2013-07-04 04:06:00,61.7,33.8,29.86,East,87,2.7,2.7,35,0.00,,FEW070,0.00,VWS V14.01,2013-07-04 11:06:00,
2013-07-04 04:11:00,62.4,33.7,29.86,NNW,346,0.0,0.0,34,0.00,,FEW070,0.00,VWS V14.01,2013-07-04 11:11:00,
2013-07-04 04:16:00,62.2,33.5,29.86,SSE,164,4.0,4.9,34,0.00,,FEW070,0.00,VWS V14.01,2013-07-04 11:16:00,
2013-07-04 04:21:00,62.6,33.9,29.86,NE,36,2.7,2.7,34,0.00,,FEW070,0.00,VWS V14.01,2013-07-04 11:21:00,
2013-07-04 04:26:00,63.1,33.6,29.86,North,353,2.7,2.7,33,0.00,,FEW070,0.00,VWS V14.01,2013-07-04 11:26:00,
2013-07-04 04:30:00,63.3,33.8,29.86,SSW,192,0.0,0.0,33,0.00,,FEW070,0.00,VWS V14.01,2013-07-04 11:30:00,
2013-07-04 04:35:00,63.0,33.4,29.86,SW,225,2.7,3.6,33,0.00,,FEW070,0.00,VWS V14.01,2013-07-04 11:35:00,
2013-07-04 04:40:00,62.6,32.3,29.86,SW,224,2.7,3.1,32,0.00,,FEW070,0.00,VWS V14.01,2013-07-04 11:40:00,
2013-07-04 04:45:00,63.0,29.4,29.86,SW,226,4.0,4.0,28,0.00,,FEW070,0.00,VWS V14.01,2013-07-04 11:45:00,
2013-07-04 04:50:00,63.7,30.0,29.86,SW,220,2.2,2.2,28,0.00,,FEW070,0.00,VWS V14.01,2013-07-04 11:50:00,
2013-07-04 04:55:00,63.9,30.1,29.86,SSW,204,2.7,2.7,28,0.00,,FEW070,0.00,VWS V14.01,2013-07-04 11:55:00,
2013-07-04 05:00:00,63.9,29.3,29.86,SW,216,5.4,5.4,27,0.00,,BKN250,0.00,VWS V14.01,2013-07-04 12:00:00,
2013-07-04 05:05:00,64.2,29.6,29.89,South,177,3.6,3.6,27,0.00,,BKN250,0.00,VWS V14.01,2013-07-04 12:05:00,
2013-07-04 05:10:00,64.0,29.4,29.89,SW,219,5.8,6.3,27,0.00,,BKN250,0.00,VWS V14.01,2013-07-04 12:10:00,
2013-07-04 05:15:00,64.0,30.3,29.89,SW,236,0.0,0.0,28,0.00,,BKN250,0.00,VWS V14.01,2013-07-04 12:15:00,
2013-07-04 05:20:00,63.7,30.0,29.89,SW,224,4.0,4.0,28,0.00,,BKN250,0.00,VWS V14.01,2013-07-04 12:20:00,
2013-07-04 05:25:00,63.9,29.3,29.89,SW,224,3.1,3.6,27,0.00,,BKN250,0.00,VWS V14.01,2013-07-04 12:25:00,
2013-07-04 05:30:00,63.9,30.1,29.89,SW,229,5.4,5.4,28,0.00,,BKN250,0.00,VWS V14.01,2013-07-04 12:30:00,
2013-07-04 05:35:00,64.0,29.4,29.89,WSW,250,4.5,4.5,27,0.00,,BKN250,0.00,VWS V14.01,2013-07-04 12:35:00,
2013-07-04 05:40:00,65.8,31.0,29.89,SSW,205,0.0,0.0,27,0.00,,BKN250,0.00,VWS V14.01,2013-07-04 12:40:00,
2013-07-04 05:45:00,66.2,30.3,29.89,WSW,237,4.0,4.0,26,0.00,,BKN250,0.00,VWS V14.01,2013-07-04 12:45:00,
2013-07-04 05:50:00,65.7,29.9,29.89,WSW,246,3.1,3.1,26,0.00,,BKN250,0.00,VWS V14.01,2013-07-04 12:50:00,
2013-07-04 05:55:00,65.1,29.4,29.89,SW,226,3.6,4.0,26,0.00,,BKN250,0.00,VWS V14.01,2013-07-04 12:55:00,
2013-07-04 06:00:00,65.5,29.7,29.89,WSW,238,4.0,4.9,26,0.00,,FEW120,0.00,VWS V14.01,2013-07-04 13:00:00,
2013-07-04 06:05:00,65.3,29.6,29.89,SW,235,4.0,4.0,26,0.00,,FEW120,0.00,VWS V14.01,2013-07-04 13:05:00,
2013-07-04 06:10:00,65.1,28.5,29.89,WSW,250,3.1,4.0,25,0.00,,FEW120,0.00,VWS V14.01,2013-07-04 13:10:00,
2013-07-04 06:15:00,65.1,29.4,29.89,SW,225,3.1,3.1,26,0.00,,FEW120,0.00,VWS V14.01,2013-07-04 13:15:00,
2013-07-04 06:20:00,64.9,29.3,29.89,SSW,207,0.0,0.0,26,0.00,,FEW120,0.00,VWS V14.01,2013-07-04 13:20:00,
2013-07-04 06:25:00,64.9,29.3,29.89,West,261,0.0,2.7,26,0.00,,FEW120,0.00,VWS V14.01,2013-07-04 13:25:00,
2013-07-04 06:30:00,64.9,29.3,29.89,West,261,0.0,0.0,26,0.00,,FEW120,0.00,VWS V14.01,2013-07-04 13:30:00,
2013-07-04 06:35:00,65.1,29.4,29.89,NE,52,2.7,2.7,26,0.00,,FEW120,0.00,VWS V14.01,2013-07-04 13:35:00,
2013-07-04 06:40:00,67.3,30.3,29.89,NE,46,0.0,3.1,25,0.00,,FEW120,0.00,VWS V14.01,2013-07-04 13:40:00,
2013-07-04 06:45:00,71.4,32.8,29.89,NE,41,0.0,0.0,24,0.00,,FEW120,0.00,VWS V14.01,2013-07-04 13:45:00,
2013-07-04 06:50:00,75.2,33.8,29.89,WSW,244,3.6,3.6,22,0.00,,FEW120,0.00,VWS V14.01,2013-07-04 13:50:00,
2013-07-04 06:55:00,77.5,34.6,29.89,NNW,329,0.0,5.4,21,0.00,,FEW120,0.00,VWS V14.01,2013-07-04 13:55:00,
2013-07-04 07:00:00,79.0,34.5,29.89,West,271,3.1,4.9,20,0.00,,FEW120,0.00,VWS V14.01,2013-07-04 14:00:00,
2013-07-04 07:05:00,79.9,35.3,29.89,SW,217,3.6,3.6,20,0.00,,CLR,0.00,VWS V14.01,2013-07-04 14:05:00,
2013-07-04 07:10:00,81.1,36.3,29.89,WSW,255,2.2,2.2,20,0.00,,CLR,0.00,VWS V14.01,2013-07-04 14:10:00,
2013-07-04 07:15:00,82.2,35.9,29.89,SW,234,2.7,3.6,19,0.00,,CLR,0.00,VWS V14.01,2013-07-04 14:15:00,
2013-07-04 07:20:00,82.4,36.0,29.89,SW,218,6.7,8.7,19,0.00,,CLR,0.00,VWS V14.01,2013-07-04 14:20:00,
2013-07-04 07:25:00,81.3,35.2,29.89,SSW,206,4.9,5.8,19,0.00,,CLR,0.00,VWS V14.01,2013-07-04 14:25:00,
2013-07-04 07:30:00,81.3,35.2,29.89,SSW,210,8.1,12.8,19,0.00,,CLR,0.00,VWS V14.01,2013-07-04 14:30:00,
2013-07-04 07:35:00,81.7,35.5,29.92,SW,227,8.3,13.2,19,0.00,,CLR,0.00,VWS V14.01,2013-07-04 14:35:00,
2013-07-04 07:40:00,81.1,32.2,29.92,West,262,7.6,8.1,17,0.00,,CLR,0.00,VWS V14.01,2013-07-04 14:40:00,
2013-07-04 07:45:00,80.8,32.0,29.92,WSW,241,7.6,8.3,17,0.00,,CLR,0.00,VWS V14.01,2013-07-04 14:45:00,
2013-07-04 07:50:00,81.1,32.2,29.92,WNW,284,5.4,10.1,17,0.00,,CLR,0.00,VWS V14.01,2013-07-04 14:50:00,
2013-07-04 07:55:00,81.3,32.4,29.92,WSW,237,7.2,8.7,17,0.00,,CLR,0.00,VWS V14.01,2013-07-04 14:55:00,
2013-07-04 08:00:00,81.3,32.4,29.92,SW,234,6.3,13.2,17,0.00,,CLR,0.00,VWS V14.01,2013-07-04 15:00:00,
2013-07-04 08:05:00,81.9,35.6,29.89,WSW,253,5.4,5.8,19,0.00,,FEW200,0.00,VWS V14.01,2013-07-04 15:05:00,
2013-07-04 08:10:00,82.4,36.0,29.89,WSW,239,3.6,6.3,19,0.00,,FEW200,0.00,VWS V14.01,2013-07-04 15:10:00,
2013-07-04 08:15:00,82.6,36.2,29.89,SW,233,4.0,6.3,19,0.00,,FEW200,0.00,VWS V14.01,2013-07-04 15:15:00,
2013-07-04 08:20:00,83.5,32.6,29.92,SW,236,6.3,8.3,16,0.00,,FEW200,0.00,VWS V14.01,2013-07-04 15:20:00,
2013-07-04 08:25:00,84.6,33.5,29.92,South,188,7.6,7.6,16,0.00,,FEW200,0.00,VWS V14.01,2013-07-04 15:25:00,
2013-07-04 08:30:00,85.5,34.2,29.92,South,182,5.4,6.3,16,0.00,,FEW200,0.00,VWS V14.01,2013-07-04 15:30:00,
2013-07-04 08:35:00,84.7,33.6,29.92,WSW,238,8.1,10.1,16,0.00,,FEW200,0.00,VWS V14.01,2013-07-04 15:35:00,
2013-07-04 08:40:00,84.6,33.5,29.92,WSW,246,7.6,7.6,16,0.00,,FEW200,0.00,VWS V14.01,2013-07-04 15:40:00,
2013-07-04 08:45:00,83.1,32.3,29.92,SW,234,5.8,7.6,16,0.00,,FEW200,0.00,VWS V14.01,2013-07-04 15:45:00,
2013-07-04 08:50:00,82.2,35.9,29.92,SW,234,5.8,5.8,19,0.00,,FEW200,0.00,VWS V14.01,2013-07-04 15:50:00,
2013-07-04 08:55:00,81.5,35.3,29.92,SSW,198,5.8,11.0,19,0.00,,FEW200,0.00,VWS V14.01,2013-07-04 15:55:00,
2013-07-04 09:00:00,80.6,34.6,29.92,SSW,208,4.0,6.3,19,0.00,,FEW200,0.00,VWS V14.01,2013-07-04 16:00:00,
2013-07-04 09:05:00,80.1,35.4,29.92,SW,231,3.6,8.7,20,0.00,,FEW200,0.00,VWS V14.01,2013-07-04 16:05:00,
2013-07-04 09:10:00,78.4,34.1,29.92,SW,222,6.3,8.3,20,0.00,,FEW200,0.00,VWS V14.01,2013-07-04 16:10:00,
2013-07-04 09:15:00,76.1,32.2,29.92,West,264,8.1,10.5,20,0.00,,FEW200,0.00,VWS V14.01,2013-07-04 16:15:00,
2013-07-04 09:20:00,75.4,32.8,29.89,South,179,11.0,11.0,21,0.00,,FEW200,0.00,VWS V14.01,2013-07-04 16:20:00,
2013-07-04 09:25:00,75.4,32.8,29.89,SW,234,5.4,10.5,21,0.00,,FEW200,0.00,VWS V14.01,2013-07-04 16:25:00,
2013-07-04 09:30:00,75.4,32.8,29.89,WSW,254,7.6,10.1,21,0.00,,FEW200,0.00,VWS V14.01,2013-07-04 16:30:00,
2013-07-04 09:35:00,75.2,32.6,29.89,SSW,211,8.7,10.5,21,0.00,,FEW200,0.00,VWS V14.01,2013-07-04 16:35:00,
2013-07-04 09:40:00,75.6,32.9,29.89,WSW,237,8.3,8.3,21,0.00,,FEW200,0.00,VWS V14.01,2013-07-04 16:40:00,
2013-07-04 09:45:00,75.7,33.1,29.89,SW,225,7.6,8.3,21,0.00,,FEW200,0.00,VWS V14.01,2013-07-04 16:45:00,
2013-07-04 09:50:00,75.9,33.2,29.89,SW,220,11.0,11.0,21,0.00,,FEW200,0.00,VWS V14.01,2013-07-04 16:50:00,
2013-07-04 09:55:00,75.9,33.2,29.89,West,262,6.3,8.3,21,0.00,,FEW200,0.00,VWS V14.01,2013-07-04 16:55:00,
2013-07-04 10:00:00,76.1,33.4,29.89,SW,216,12.8,12.8,21,0.00,,FEW200,0.00,VWS V14.01,2013-07-04 17:00:00,
2013-07-04 10:05:00,76.3,33.5,29.89,West,262,3.1,8.3,21,0.00,,FEW200,0.00,VWS V14.01,2013-07-04 17:05:00,
2013-07-04 10:10:00,76.5,33.7,29.89,SSE,158,7.6,10.1,21,0.00,,FEW200,0.00,VWS V14.01,2013-07-04 17:10:00,
2013-07-04 10:15:00,76.5,33.7,29.89,SSW,207,8.3,8.3,21,0.00,,FEW200,0.00,VWS V14.01,2013-07-04 17:15:00,
2013-07-04 10:20:00,76.6,33.8,29.89,SW,234,11.0,14.5,21,0.00,,FEW200,0.00,VWS V14.01,2013-07-04 17:20:00,
2013-07-04 10:25:00,76.6,33.8,29.89,SSW,205,8.7,8.7,21,0.00,,FEW200,0.00,VWS V14.01,2013-07-04 17:25:00,
2013-07-04 10:30:00,77.2,33.0,29.89,SW,216,6.3,12.8,20,0.00,,FEW200,0.00,VWS V14.01,2013-07-04 17:30:00,
2013-07-04 10:35:00,77.2,33.0,29.89,SW,227,13.2,13.2,20,0.00,,FEW200,0.00,VWS V14.01,2013-07-04 17:35:00,
2013-07-04 10:40:00,77.4,33.2,29.89,SSW,206,8.1,8.3,20,0.00,,FEW200,0.00,VWS V14.01,2013-07-04 17:40:00,
2013-07-04 10:45:00,77.7,33.5,29.89,SW,214,8.1,8.1,20,0.00,,FEW200,0.00,VWS V14.01,2013-07-04 17:45:00,
2013-07-04 10:50:00,78.1,33.8,29.89,South,180,7.2,7.2,20,0.00,,FEW200,0.00,VWS V14.01,2013-07-04 17:50:00,
2013-07-04 10:55:00,78.1,35.0,29.89,SW,233,7.6,7.6,21,0.00,,FEW200,0.00,VWS V14.01,2013-07-04 17:55:00,
2013-07-04 11:00:00,77.9,33.6,29.89,SSW,209,9.2,9.2,20,0.00,,FEW200,0.00,VWS V14.01,2013-07-04 18:00:00,
2013-07-04 11:05:00,77.7,33.5,29.89,SW,236,8.1,8.1,20,0.00,,FEW200,0.00,VWS V14.01,2013-07-04 18:05:00,
2013-07-04 11:10:00,77.7,33.5,29.89,West,261,4.0,8.3,20,0.00,,FEW200,0.00,VWS V14.01,2013-07-04 18:10:00,
2013-07-04 11:15:00,77.9,33.6,29.89,SSW,202,5.4,8.1,20,0.00,,FEW200,0.00,VWS V14.01,2013-07-04 18:15:00,
2013-07-04 11:20:00,78.4,34.1,29.89,WSW,250,6.3,6.3,20,0.00,,FEW200,0.00,VWS V14.01,2013-07-04 18:20:00,
2013-07-04 11:25:00,78.8,34.4,29.89,WSW,249,6.7,6.7,20,0.00,,FEW200,0.00,VWS V14.01,2013-07-04 18:25:00,
2013-07-04 11:30:00,78.8,34.4,29.89,SW,236,5.8,9.6,20,0.00,,FEW200,0.00,VWS V14.01,2013-07-04 18:30:00,
2013-07-04 11:35:00,78.4,34.1,29.89,SW,214,8.3,8.3,20,0.00,,FEW200,0.00,VWS V14.01,2013-07-04 18:35:00,
2013-07-04 11:40:00,78.4,35.3,29.89,WSW,251,7.6,8.1,21,0.00,,FEW200,0.00,VWS V14.01,2013-07-04 18:40:00,
2013-07-04 11:45:00,78.6,34.2,29.89,SW,231,8.1,8.1,20,0.00,,FEW200,0.00,VWS V14.01,2013-07-04 18:45:00,
2013-07-04 11:50:00,78.6,34.2,29.89,West,276,8.7,10.1,20,0.00,,FEW200,0.00,VWS V14.01,2013-07-04 18:50:00,
2013-07-04 11:55:00,78.8,34.4,29.89,WSW,244,6.3,8.7,20,0.00,,FEW200,0.00,VWS V14.01,2013-07-04 18:55:00,
2013-07-04 12:00:00,79.0,34.5,29.89,SW,223,4.9,4.9,20,0.00,,CLR,0.00,VWS V14.01,2013-07-04 19:00:00,
2013-07-04 12:05:00,79.2,34.7,29.89,SW,232,8.7,8.7,20,0.00,,CLR,0.00,VWS V14.01,2013-07-04 19:05:00,
2013-07-04 12:10:00,79.0,34.5,29.89,West,268,8.7,8.7,20,0.00,,CLR,0.00,VWS V14.01,2013-07-04 19:10:00,
2013-07-04 12:15:00,79.2,34.7,29.89,West,276,6.3,6.3,20,0.00,,CLR,0.00,VWS V14.01,2013-07-04 19:15:00,
2013-07-04 12:20:00,79.3,34.8,29.89,WSW,246,7.6,11.0,20,0.00,,CLR,0.00,VWS V14.01,2013-07-04 19:20:00,
2013-07-04 12:25:00,79.0,34.5,29.89,West,263,12.3,12.3,20,0.00,,CLR,0.00,VWS V14.01,2013-07-04 19:25:00,
2013-07-04 12:30:00,79.0,34.5,29.89,WSW,237,10.5,12.8,20,0.00,,CLR,0.00,VWS V14.01,2013-07-04 19:30:00,
2013-07-04 12:35:00,79.7,35.1,29.89,SW,222,7.6,8.7,20,0.00,,CLR,0.00,VWS V14.01,2013-07-04 19:35:00,
2013-07-04 12:40:00,80.1,35.4,29.89,West,279,8.3,8.3,20,0.00,,CLR,0.00,VWS V14.01,2013-07-04 19:40:00,
2013-07-04 12:45:00,80.2,35.6,29.89,SW,227,5.8,6.3,20,0.00,,CLR,0.00,VWS V14.01,2013-07-04 19:45:00,
2013-07-04 12:50:00,80.2,35.6,29.89,SW,225,8.7,8.7,20,0.00,,CLR,0.00,VWS V14.01,2013-07-04 19:50:00,
2013-07-04 12:55:00,80.1,35.4,29.89,SW,230,10.5,10.5,20,0.00,,CLR,0.00,VWS V14.01,2013-07-04 19:55:00,
2013-07-04 13:00:00,80.1,35.4,29.89,WNW,293,8.1,8.7,20,0.00,,FEW200,0.00,VWS V14.01,2013-07-04 20:00:00,
2013-07-04 13:05:00,80.4,35.7,29.86,WSW,237,5.8,10.1,20,0.00,,FEW200,0.00,VWS V14.01,2013-07-04 20:05:00,
2013-07-04 13:10:00,81.0,34.9,29.86,SSW,194,4.9,6.7,19,0.00,,FEW200,0.00,VWS V14.01,2013-07-04 20:10:00,
2013-07-04 13:15:00,81.1,35.0,29.86,WSW,251,8.1,8.1,19,0.00,,FEW200,0.00,VWS V14.01,2013-07-04 20:15:00,
2013-07-04 13:20:00,81.3,35.2,29.86,WSW,242,8.1,8.7,19,0.00,,FEW200,0.00,VWS V14.01,2013-07-04 20:20:00,
2013-07-04 13:25:00,81.0,32.1,29.86,SW,217,8.3,10.5,17,0.00,,FEW200,0.00,VWS V14.01,2013-07-04 20:25:00,
2013-07-04 13:30:00,81.3,35.2,29.86,SW,230,3.6,5.4,19,0.00,,FEW200,0.00,VWS V14.01,2013-07-04 20:30:00,
2013-07-04 13:35:00,81.7,35.5,29.86,WSW,239,4.0,4.9,19,0.00,,FEW200,0.00,VWS V14.01,2013-07-04 20:35:00,
2013-07-04 13:40:00,82.0,35.8,29.86,East,86,4.9,4.9,19,0.00,,FEW200,0.00,VWS V14.01,2013-07-04 20:40:00,
2013-07-04 13:45:00,81.9,35.6,29.86,SW,226,4.0,11.0,19,0.00,,FEW200,0.00,VWS V14.01,2013-07-04 20:45:00,
2013-07-04 13:50:00,82.4,36.0,29.86,West,260,10.1,10.5,19,0.00,,FEW200,0.00,VWS V14.01,2013-07-04 20:50:00,
2013-07-04 13:55:00,82.2,35.9,29.86,SSW,207,9.6,9.6,19,0.00,,FEW200,0.00,VWS V14.01,2013-07-04 20:55:00,
2013-07-04 14:00:00,82.6,36.2,29.86,SW,231,5.8,6.3,19,0.00,,FEW045,0.00,VWS V14.01,2013-07-04 21:00:00,
2013-07-04 14:05:00,82.9,36.5,29.86,West,266,8.3,8.7,19,0.00,,FEW045,0.00,VWS V14.01,2013-07-04 21:05:00,
2013-07-04 14:10:00,82.9,32.2,29.86,SSW,207,5.8,5.8,16,0.00,,FEW045,0.00,VWS V14.01,2013-07-04 21:10:00,
2013-07-04 14:15:00,83.1,32.3,29.86,SW,234,5.4,7.6,16,0.00,,FEW045,0.00,VWS V14.01,2013-07-04 21:15:00,
2013-07-04 14:20:00,83.3,32.5,29.86,West,265,6.3,6.3,16,0.00,,FEW045,0.00,VWS V14.01,2013-07-04 21:20:00,
2013-07-04 14:25:00,83.1,32.3,29.86,SSW,203,4.0,5.8,16,0.00,,FEW045,0.00,VWS V14.01,2013-07-04 21:25:00,
2013-07-04 14:30:00,83.7,32.8,29.86,South,173,5.4,5.8,16,0.00,,FEW045,0.00,VWS V14.01,2013-07-04 21:30:00,
2013-07-04 14:35:00,83.8,32.9,29.83,SSE,155,3.1,5.8,16,0.00,,FEW045,0.00,VWS V14.01,2013-07-04 21:35:00,
2013-07-04 14:40:00,84.2,33.2,29.83,SSW,206,13.2,13.2,16,0.00,,FEW045,0.00,VWS V14.01,2013-07-04 21:40:00,
2013-07-04 14:45:00,84.6,33.5,29.83,SW,221,7.6,8.1,16,0.00,,FEW045,0.00,VWS V14.01,2013-07-04 21:45:00,
2013-07-04 14:50:00,84.4,33.3,29.83,WNW,287,12.3,12.3,16,0.00,,FEW045,0.00,VWS V14.01,2013-07-04 21:50:00,
2013-07-04 14:55:00,84.4,33.3,29.83,SW,234,8.3,8.3,16,0.00,,FEW045,0.00,VWS V14.01,2013-07-04 21:55:00,
2013-07-04 15:00:00,84.6,33.5,29.83,WSW,256,5.4,7.6,16,0.00,,FEW050,0.00,VWS V14.01,2013-07-04 22:00:00,
2013-07-04 15:05:00,85.1,33.9,29.83,WNW,288,7.6,8.1,16,0.00,,FEW050,0.00,VWS V14.01,2013-07-04 22:05:00,
2013-07-04 15:10:00,84.9,33.8,29.83,WSW,250,5.8,6.3,16,0.00,,FEW050,0.00,VWS V14.01,2013-07-04 22:10:00,
2013-07-04 15:15:00,85.1,33.9,29.83,NNW,341,0.0,2.2,16,0.00,,FEW050,0.00,VWS V14.01,2013-07-04 22:15:00,
2013-07-04 15:20:00,85.1,33.9,29.83,SW,229,12.8,12.8,16,0.00,,FEW050,0.00,VWS V14.01,2013-07-04 22:20:00,
2013-07-04 15:25:00,85.3,34.1,29.83,SW,226,10.1,10.1,16,0.00,,FEW050,0.00,VWS V14.01,2013-07-04 22:25:00,
2013-07-04 15:30:00,85.5,34.2,29.83,SW,224,5.4,7.2,16,0.00,,FEW050,0.00,VWS V14.01,2013-07-04 22:30:00,
2013-07-04 15:35:00,85.6,34.3,29.80,SW,235,11.9,11.9,16,0.00,,FEW050,0.00,VWS V14.01,2013-07-04 22:35:00,
2013-07-04 15:40:00,85.5,34.2,29.80,WSW,237,11.9,11.9,16,0.00,,FEW050,0.00,VWS V14.01,2013-07-04 22:40:00,
2013-07-04 15:45:00,85.3,34.1,29.80,SW,225,8.3,11.0,16,0.00,,FEW050,0.00,VWS V14.01,2013-07-04 22:45:00,
2013-07-04 15:50:00,84.9,33.8,29.80,WSW,238,8.1,9.6,16,0.00,,FEW050,0.00,VWS V14.01,2013-07-04 22:50:00,
2013-07-04 15:55:00,84.4,28.2,29.80,SW,232,7.6,7.6,13,0.00,,FEW050,0.00,VWS V14.01,2013-07-04 22:55:00,
2013-07-04 16:00:00,84.0,33.0,29.80,WSW,238,3.6,5.4,16,0.00,,SCT200,0.00,VWS V14.01,2013-07-04 23:00:00,
2013-07-04 16:05:00,83.8,32.9,29.83,WSW,242,7.6,7.6,16,0.00,,SCT200,0.00,VWS V14.01,2013-07-04 23:05:00,
2013-07-04 16:10:00,84.4,33.3,29.83,West,262,5.8,6.3,16,0.00,,SCT200,0.00,VWS V14.01,2013-07-04 23:10:00,
2013-07-04 16:15:00,84.6,33.5,29.83,West,277,5.8,5.8,16,0.00,,SCT200,0.00,VWS V14.01,2013-07-04 23:15:00,
2013-07-04 16:20:00,85.1,33.9,29.80,SW,218,8.1,8.1,16,0.00,,SCT200,0.00,VWS V14.01,2013-07-04 23:20:00,
2013-07-04 16:25:00,85.3,28.9,29.80,WSW,241,7.6,7.6,13,0.00,,SCT200,0.00,VWS V14.01,2013-07-04 23:25:00,
2013-07-04 16:30:00,84.6,28.4,29.80,WSW,252,8.3,8.3,13,0.00,,SCT200,0.00,VWS V14.01,2013-07-04 23:30:00,
2013-07-04 16:35:00,83.8,32.9,29.80,WSW,241,6.3,8.1,16,0.00,,SCT200,0.00,VWS V14.01,2013-07-04 23:35:00,
2013-07-04 16:40:00,83.3,32.5,29.80,WSW,249,6.3,6.3,16,0.00,,SCT200,0.00,VWS V14.01,2013-07-04 23:40:00,
2013-07-04 16:45:00,82.8,32.0,29.80,SW,222,6.7,8.3,16,0.00,,SCT200,0.00,VWS V14.01,2013-07-04 23:45:00,
2013-07-04 16:50:00,82.9,32.2,29.80,SW,235,6.3,6.3,16,0.00,,SCT200,0.00,VWS V14.01,2013-07-04 23:50:00,
2013-07-04 16:55:00,82.4,31.8,29.80,WNW,285,5.8,5.8,16,0.00,,SCT200,0.00,VWS V14.01,2013-07-04 23:55:00,
2013-07-04 17:00:00,82.4,31.8,29.80,WNW,293,4.0,5.4,16,0.00,,SCT200,0.00,VWS V14.01,2013-07-05 00:00:00,
2013-07-04 17:05:00,82.8,28.8,29.80,South,182,4.9,5.4,14,0.00,,SCT200,0.00,VWS V14.01,2013-07-05 00:05:00,
2013-07-04 17:10:00,82.8,32.0,29.80,SSW,207,5.4,5.4,16,0.00,,SCT200,0.00,VWS V14.01,2013-07-05 00:10:00,
2013-07-04 17:15:00,82.4,28.5,29.80,WSW,244,8.1,10.1,14,0.00,,SCT200,0.00,VWS V14.01,2013-07-05 00:15:00,
2013-07-04 17:20:00,82.0,28.2,29.80,SW,233,8.1,8.1,14,0.00,,SCT200,0.00,VWS V14.01,2013-07-05 00:20:00,
2013-07-04 17:25:00,81.7,32.7,29.80,SW,218,5.8,6.3,17,0.00,,SCT200,0.00,VWS V14.01,2013-07-05 00:25:00,
2013-07-04 17:30:00,81.5,32.5,29.80,SW,234,3.1,5.4,17,0.00,,SCT200,0.00,VWS V14.01,2013-07-05 00:30:00,
2013-07-04 17:35:00,81.3,27.6,29.80,WSW,250,5.8,5.8,14,0.00,,SCT200,0.00,VWS V14.01,2013-07-05 00:35:00,
2013-07-04 17:40:00,81.7,32.7,29.80,SW,219,10.1,10.1,17,0.00,,SCT200,0.00,VWS V14.01,2013-07-05 00:40:00,
2013-07-04 17:45:00,81.5,32.5,29.80,South,190,5.4,5.4,17,0.00,,SCT200,0.00,VWS V14.01,2013-07-05 00:45:00,
2013-07-04 17:50:00,81.3,32.4,29.77,WSW,257,4.9,5.8,17,0.00,,SCT200,0.00,VWS V14.01,2013-07-05 00:50:00,
2013-07-04 17:55:00,81.3,32.4,29.77,West,259,7.2,7.2,17,0.00,,SCT200,0.00,VWS V14.01,2013-07-05 00:55:00,
2013-07-04 18:00:00,81.3,27.6,29.77,SW,233,6.3,6.3,14,0.00,,SCT200,0.00,VWS V14.01,2013-07-05 01:00:00,
2013-07-04 18:05:00,81.0,27.3,29.77,SW,228,5.8,6.3,14,0.00,,SCT200,0.00,VWS V14.01,2013-07-05 01:05:00,
2013-07-04 18:10:00,80.6,27.0,29.77,WSW,257,6.3,6.3,14,0.00,,SCT200,0.00,VWS V14.01,2013-07-05 01:10:00,
2013-07-04 18:15:00,81.0,27.3,29.77,WSW,247,4.0,4.0,14,0.00,,SCT200,0.00,VWS V14.01,2013-07-05 01:15:00,
2013-07-04 18:20:00,81.1,27.5,29.77,West,276,3.6,3.6,14,0.00,,SCT200,0.00,VWS V14.01,2013-07-05 01:20:00,
2013-07-04 18:25:00,80.4,28.6,29.77,SW,224,8.1,11.4,15,0.00,,SCT200,0.00,VWS V14.01,2013-07-05 01:25:00,
2013-07-04 18:30:00,80.2,28.4,29.77,SSW,213,5.4,6.3,15,0.00,,SCT200,0.00,VWS V14.01,2013-07-05 01:30:00,
2013-07-04 18:35:00,80.1,28.3,29.77,West,276,3.6,4.0,15,0.00,,SCT200,0.00,VWS V14.01,2013-07-05 01:35:00,
2013-07-04 18:40:00,80.1,28.3,29.77,West,269,7.6,7.6,15,0.00,,SCT200,0.00,VWS V14.01,2013-07-05 01:40:00,
2013-07-04 18:45:00,80.1,28.3,29.77,WNW,286,6.3,8.1,15,0.00,,SCT200,0.00,VWS V14.01,2013-07-05 01:45:00,
2013-07-04 18:50:00,79.9,28.1,29.77,West,269,5.8,5.8,15,0.00,,SCT200,0.00,VWS V14.01,2013-07-05 01:50:00,
2013-07-04 18:55:00,79.7,28.0,29.77,SW,235,8.7,8.7,15,0.00,,SCT200,0.00,VWS V14.01,2013-07-05 01:55:00,
2013-07-04 19:00:00,79.5,27.9,29.77,WSW,249,5.4,6.3,15,0.00,,SCT200,0.00,VWS V14.01,2013-07-05 02:00:00,
2013-07-04 19:05:00,79.5,27.9,29.77,WNW,293,6.3,6.3,15,0.00,,SCT200,0.00,VWS V14.01,2013-07-05 02:05:00,
2013-07-04 19:10:00,79.2,27.6,29.77,WSW,248,6.3,10.5,15,0.00,,SCT200,0.00,VWS V14.01,2013-07-05 02:10:00,
2013-07-04 19:15:00,79.0,27.4,29.77,SW,233,6.7,6.7,15,0.00,,SCT200,0.00,VWS V14.01,2013-07-05 02:15:00,
2013-07-04 19:20:00,79.0,27.4,29.77,SW,230,5.4,6.7,15,0.00,,SCT200,0.00,VWS V14.01,2013-07-05 02:20:00,
2013-07-04 19:25:00,78.6,27.1,29.77,SW,232,3.6,3.6,15,0.00,,SCT200,0.00,VWS V14.01,2013-07-05 02:25:00,
2013-07-04 19:30:00,78.6,31.6,29.77,WSW,237,5.4,5.4,18,0.00,,SCT200,0.00,VWS V14.01,2013-07-05 02:30:00,
2013-07-04 19:35:00,78.3,31.3,29.77,SW,233,6.7,7.6,18,0.00,,SCT200,0.00,VWS V14.01,2013-07-05 02:35:00,
2013-07-04 19:40:00,78.3,26.9,29.77,SW,231,4.9,6.3,15,0.00,,SCT200,0.00,VWS V14.01,2013-07-05 02:40:00,
2013-07-04 19:45:00,78.1,31.2,29.77,SW,216,5.4,8.1,18,0.00,,SCT200,0.00,VWS V14.01,2013-07-05 02:45:00,
2013-07-04 19:50:00,78.3,31.3,29.77,SW,229,5.8,5.8,18,0.00,,SCT200,0.00,VWS V14.01,2013-07-05 02:50:00,
2013-07-04 19:55:00,78.4,31.5,29.77,SW,226,8.1,8.1,18,0.00,,SCT200,0.00,VWS V14.01,2013-07-05 02:55:00,
2013-07-04 20:00:00,78.6,31.6,29.77,West,278,4.0,4.0,18,0.00,,FEW070,0.00,VWS V14.01,2013-07-05 03:00:00,
2013-07-04 20:05:00,78.1,31.2,29.77,WSW,247,3.6,5.4,18,0.00,,FEW070,0.00,VWS V14.01,2013-07-05 03:05:00,
2013-07-04 20:10:00,77.4,30.6,29.77,SW,227,2.7,4.0,18,0.00,,FEW070,0.00,VWS V14.01,2013-07-05 03:10:00,
2013-07-04 20:15:00,76.6,30.0,29.77,SW,230,6.3,6.3,18,0.00,,FEW070,0.00,VWS V14.01,2013-07-05 03:15:00,
2013-07-04 20:20:00,76.3,29.7,29.77,WSW,237,5.8,5.8,18,0.00,,FEW070,0.00,VWS V14.01,2013-07-05 03:20:00,
2013-07-04 20:25:00,75.9,29.4,29.77,SW,218,3.1,4.0,18,0.00,,FEW070,0.00,VWS V14.01,2013-07-05 03:25:00,
2013-07-04 20:30:00,75.4,29.0,29.77,SW,219,3.6,3.6,18,0.00,,FEW070,0.00,VWS V14.01,2013-07-05 03:30:00,
2013-07-04 20:35:00,74.8,28.5,29.77,SW,232,4.0,4.0,18,0.00,,FEW070,0.00,VWS V14.01,2013-07-05 03:35:00,
2013-07-04 20:40:00,74.7,28.4,29.77,SW,233,3.1,4.0,18,0.00,,FEW070,0.00,VWS V14.01,2013-07-05 03:40:00,
2013-07-04 20:45:00,74.1,27.9,29.77,SW,228,3.6,5.4,18,0.00,,FEW070,0.00,VWS V14.01,2013-07-05 03:45:00,
2013-07-04 20:50:00,73.9,27.8,29.77,SW,233,4.9,4.9,18,0.00,,FEW070,0.00,VWS V14.01,2013-07-05 03:50:00,
2013-07-04 20:55:00,73.6,27.5,29.77,SW,227,4.0,4.0,18,0.00,,FEW070,0.00,VWS V14.01,2013-07-05 03:55:00,
2013-07-04 21:00:00,73.0,28.4,29.77,SW,220,3.1,4.0,19,0.00,,FEW070,0.00,VWS V14.01,2013-07-05 04:00:00,
2013-07-04 21:01:00,73.0,28.4,29.77,SW,221,3.1,3.1,19,0.00,,FEW060,0.00,VWS V14.01,2013-07-05 04:01:00,
2013-07-04 21:06:00,72.5,27.9,29.77,SW,225,3.1,3.6,19,0.00,,FEW060,0.00,VWS V14.01,2013-07-05 04:06:00,
2013-07-04 21:11:00,72.0,27.5,29.77,SW,224,0.0,0.0,19,0.00,,FEW060,0.00,VWS V14.01,2013-07-05 04:11:00,
2013-07-04 21:16:00,71.4,27.0,29.77,SW,224,0.0,0.0,19,0.00,,FEW060,0.00,VWS V14.01,2013-07-05 04:16:00,
2013-07-04 21:21:00,70.9,30.2,29.77,SW,224,0.0,0.0,22,0.00,,FEW060,0.00,VWS V14.01,2013-07-05 04:21:00,
2013-07-04 21:26:00,70.0,29.4,29.77,SW,224,0.0,0.0,22,0.00,,FEW060,0.00,VWS V14.01,2013-07-05 04:26:00,
2013-07-04 21:31:00,69.3,28.8,29.77,SW,224,0.0,0.0,22,0.00,,FEW060,0.00,VWS V14.01,2013-07-05 04:31:00,
2013-07-04 21:36:00,68.9,29.6,29.77,SW,224,0.0,0.0,23,0.00,,FEW060,0.00,VWS V14.01,2013-07-05 04:36:00,
2013-07-04 21:41:00,68.4,29.1,29.77,SW,224,0.0,0.0,23,0.00,,FEW060,0.00,VWS V14.01,2013-07-05 04:41:00,
2013-07-04 21:46:00,68.0,28.9,29.77,SW,224,0.0,0.0,23,0.00,,FEW060,0.00,VWS V14.01,2013-07-05 04:46:00,
2013-07-04 21:51:00,67.6,28.5,29.77,SW,224,0.0,0.0,23,0.00,,FEW060,0.00,VWS V14.01,2013-07-05 04:51:00,
2013-07-04 21:56:00,67.8,28.7,29.77,SW,224,0.0,0.0,23,0.00,,FEW060,0.00,VWS V14.01,2013-07-05 04:56:00,
2013-07-04 22:01:00,68.0,28.9,29.77,SW,224,0.0,0.0,23,0.00,,FEW060,0.00,VWS V14.01,2013-07-05 05:01:00,
2013-07-04 22:06:00,67.6,29.6,29.77,NE,43,3.1,3.1,24,0.00,,FEW060,0.00,VWS V14.01,2013-07-05 05:06:00,
2013-07-04 22:11:00,67.6,29.6,29.77,ENE,61,0.0,0.0,24,0.00,,FEW060,0.00,VWS V14.01,2013-07-05 05:11:00,
2013-07-04 22:16:00,66.7,31.7,29.77,ENE,61,0.0,0.0,27,0.00,,FEW060,0.00,VWS V14.01,2013-07-05 05:16:00,
2013-07-04 22:21:00,66.2,31.3,29.77,ENE,61,0.0,0.0,27,0.00,,FEW060,0.00,VWS V14.01,2013-07-05 05:21:00,
2013-07-04 22:26:00,65.5,31.5,29.77,ENE,61,0.0,0.0,28,0.00,,FEW060,0.00,VWS V14.01,2013-07-05 05:26:00,
2013-07-04 22:31:00,65.1,32.1,29.77,ENE,61,0.0,0.0,29,0.00,,FEW060,0.00,VWS V14.01,2013-07-05 05:31:00,
2013-07-04 22:36:00,64.6,32.5,29.77,ENE,61,0.0,0.0,30,0.00,,FEW060,0.00,VWS V14.01,2013-07-05 05:36:00,
2013-07-04 22:41:00,64.4,31.5,29.77,ENE,61,0.0,0.0,29,0.00,,FEW060,0.00,VWS V14.01,2013-07-05 05:41:00,
2013-07-04 22:46:00,63.9,31.9,29.77,ENE,61,0.0,0.0,30,0.00,,FEW060,0.00,VWS V14.01,2013-07-05 05:46:00,
2013-07-04 22:51:00,64.0,31.2,29.77,ENE,61,0.0,0.0,29,0.00,,FEW060,0.00,VWS V14.01,2013-07-05 05:51:00,
2013-07-04 22:56:00,63.9,32.7,29.77,ENE,61,0.0,0.0,31,0.00,,FEW060,0.00,VWS V14.01,2013-07-05 05:56:00,
2013-07-04 23:01:00,63.3,32.2,29.77,ENE,61,0.0,0.0,31,0.00,,CLR,0.00,VWS V14.01,2013-07-05 06:01:00,
2013-07-04 23:06:00,63.0,33.4,29.77,ENE,61,0.0,0.0,33,0.00,,CLR,0.00,VWS V14.01,2013-07-05 06:06:00,
2013-07-04 23:12:00,62.6,33.1,29.77,ENE,61,0.0,0.0,33,0.00,,CLR,0.00,VWS V14.01,2013-07-05 06:12:00,
2013-07-04 23:18:00,62.8,33.3,29.77,ENE,61,0.0,0.0,33,0.00,,CLR,0.00,VWS V14.01,2013-07-05 06:18:00,
2013-07-04 23:23:00,63.0,33.4,29.77,ENE,61,0.0,0.0,33,0.00,,CLR,0.00,VWS V14.01,2013-07-05 06:23:00,
2013-07-04 23:28:00,63.0,33.4,29.77,ENE,61,0.0,0.0,33,0.00,,CLR,0.00,VWS V14.01,2013-07-05 06:28:00,
2013-07-04 23:33:00,62.8,34.0,29.77,ENE,61,0.0,0.0,34,0.00,,CLR,0.00,VWS V14.01,2013-07-05 06:33:00,
2013-07-04 23:38:00,62.4,33.7,29.77,ENE,61,0.0,0.0,34,0.00,,CLR,0.00,VWS V14.01,2013-07-05 06:38:00,
2013-07-04 23:43:00,62.6,33.9,29.77,ENE,61,0.0,0.0,34,0.00,,CLR,0.00,VWS V14.01,2013-07-05 06:43:00,
2013-07-04 23:48:00,62.6,33.9,29.77,ENE,61,0.0,0.0,34,0.00,,CLR,0.00,VWS V14.01,2013-07-05 06:48:00,
2013-07-04 23:53:00,62.6,34.6,29.77,ENE,61,0.0,0.0,35,0.00,,CLR,0.00,VWS V14.01,2013-07-05 06:53:00,
2013-07-04 23:58:00,62.8,34.8,29.77,ENE,63,0.0,2.7,35,0.00,,CLR,0.00,VWS V14.01,2013-07-05 06:58:00,